Time;durP1;ratioP1;P1;durP2;ratioP2;P2;SDS_P1;SDS_P2;PMS_P1;PMS_P2;Temp;Humidity;BMP_temperature;BMP_pressure;BME280_temperature;BME280_humidity;BME280_pressure;Samples;Min_cycle;Max_cycle;Signal;HPM_P1;HPM_P2
2023/07/23 00:05:25;;;;;;;11.30;8.80;;;;;;;11.48;67.65;99383.11;435538;1256;138961;-73
2023/07/23 00:15:31;;;;;;;8.30;6.50;;;;;;;11.34;68.09;99374.09;436769;1256;139565;-73
2023/07/23 00:25:37;;;;;;;7.90;6.00;;;;;;;11.27;68.64;99363.17;435940;1256;141366;-73
2023/07/23 00:35:43;;;;;;;7.30;6.20;;;;;;;11.24;68.69;99351.13;436362;1256;139386;-75
2023/07/23 00:45:49;;;;;;;8.20;5.90;;;;;;;11.22;68.78;99348.84;435898;1256;139124;-74
2023/07/23 00:55:59;;;;;;;6.90;5.20;;;;;;;11.17;69.06;99354.43;436384;1257;140470;-72
2023/07/23 01:06:10;;;;;;;7.00;6.20;;;;;;;11.04;69.46;99360.59;436024;1256;140232;-74
2023/07/23 01:16:16;;;;;;;7.30;5.40;;;;;;;10.90;69.85;99362.43;436673;1254;139700;-72
2023/07/23 01:26:23;;;;;;;6.00;5.10;;;;;;;10.79;70.04;99361.73;437820;1257;140779;-74
2023/07/23 01:36:28;;;;;;;7.40;5.80;;;;;;;10.64;70.29;99349.63;435507;1260;140094;-71
2023/07/23 01:46:34;;;;;;;6.60;5.60;;;;;;;10.54;70.81;99336.83;435139;1257;139424;-72
2023/07/23 01:56:41;;;;;;;6.00;5.10;;;;;;;10.46;71.27;99335.10;435622;1257;140187;-73
2023/07/23 02:06:47;;;;;;;5.50;5.00;;;;;;;10.38;71.27;99338.96;435460;1257;140505;-72
2023/07/23 02:16:52;;;;;;;7.60;5.40;;;;;;;10.27;71.51;99343.68;435759;1258;140196;-73
2023/07/23 02:26:58;;;;;;;6.40;5.70;;;;;;;10.21;72.31;99338.27;435714;1258;139589;-73
2023/07/23 02:37:04;;;;;;;5.30;4.70;;;;;;;10.13;72.05;99330.43;435659;1254;139644;-72
2023/07/23 02:47:10;;;;;;;5.40;4.80;;;;;;;10.13;72.38;99326.03;436297;1257;139664;-74
2023/07/23 02:57:16;;;;;;;6.60;5.30;;;;;;;10.18;72.45;99322.05;435850;1257;140469;-73
2023/07/23 03:07:22;;;;;;;5.50;5.00;;;;;;;10.31;72.67;99314.22;435895;1257;140331;-74
2023/07/23 03:17:28;;;;;;;10.00;5.10;;;;;;;10.53;72.40;99308.23;436537;1257;139497;-73
2023/07/23 03:27:34;;;;;;;6.40;4.50;;;;;;;10.94;72.13;99307.85;435442;1257;139381;-72
2023/07/23 03:37:40;;;;;;;5.10;4.60;;;;;;;11.20;71.37;99304.86;435523;1255;140324;-72
2023/07/23 03:47:45;;;;;;;14.60;5.00;;;;;;;11.53;70.99;99297.88;436299;1257;139033;-73
2023/07/23 03:57:51;;;;;;;6.60;4.20;;;;;;;12.07;70.44;99301.19;435670;1256;140364;-73
2023/07/23 04:07:57;;;;;;;9.00;5.20;;;;;;;12.74;69.05;99295.23;435642;1255;140959;-73
2023/07/23 04:18:03;;;;;;;5.40;4.80;;;;;;;14.34;68.04;99294.44;436134;1252;139689;-76
2023/07/23 04:28:09;;;;;;;5.10;4.40;;;;;;;19.03;61.38;99290.86;436190;1254;141077;-72
2023/07/23 04:38:15;;;;;;;6.60;5.90;;;;;;;19.60;57.72;99291.38;436052;1257;140143;-72
2023/07/23 04:48:20;;;;;;;6.50;4.10;;;;;;;22.55;52.63;99278.95;436941;1257;138607;-73
2023/07/23 04:58:27;;;;;;;3.50;3.20;;;;;;;23.54;49.96;99274.09;436271;1254;139650;-74
2023/07/23 05:08:34;;;;;;;2.90;2.70;;;;;;;27.81;44.68;99265.47;435774;1253;138543;-73
2023/07/23 05:18:39;;;;;;;4.20;2.60;;;;;;;29.81;39.95;99265.33;436208;1254;138472;-73
2023/07/23 05:28:45;;;;;;;4.40;2.80;;;;;;;31.38;36.89;99259.64;436164;1254;139377;-73
2023/07/23 05:38:51;;;;;;;4.90;3.00;;;;;;;34.48;33.39;99252.55;436261;1254;138874;-74
2023/07/23 05:48:57;;;;;;;2.60;2.40;;;;;;;35.17;30.94;99248.02;435989;1254;139517;-72
2023/07/23 05:59:03;;;;;;;5.50;2.60;;;;;;;35.47;29.23;99244.52;435693;1256;138731;-72
2023/07/23 06:09:07;;;;;;;;;;;;;;;32.35;30.16;99239.48;435981;1253;141414;-73
2023/07/23 06:19:13;;;;;;;7.70;2.90;;;;;;;32.05;31.02;99227.07;435743;1254;125452;-73
2023/07/23 06:29:21;;;;;;;1.90;1.80;;;;;;;32.89;29.98;99217.34;435873;1256;138407;-74
2023/07/23 06:39:27;;;;;;;3.60;2.40;;;;;;;33.19;29.08;99209.41;435907;1256;139650;-73
2023/07/23 06:49:33;;;;;;;3.50;2.40;;;;;;;30.50;30.38;99196.94;435922;1256;140141;-74
2023/07/23 06:59:39;;;;;;;2.90;2.70;;;;;;;28.53;32.19;99192.09;435633;1253;138827;-73
2023/07/23 07:09:47;;;;;;;7.10;3.40;;;;;;;27.96;33.15;99181.54;435947;1256;138751;-72
2023/07/23 07:19:53;;;;;;;5.20;3.00;;;;;;;28.99;32.96;99167.07;435597;1256;138481;-72
2023/07/23 07:30:00;;;;;;;3.60;2.60;;;;;;;31.27;31.71;99160.48;436050;1254;139073;-73
2023/07/23 07:40:13;;;;;;;2.60;2.40;;;;;;;34.38;29.37;99154.96;435956;1256;147291;-73
2023/07/23 07:50:19;;;;;;;3.10;2.60;;;;;;;40.83;25.04;99138.91;436056;1253;139744;-72
2023/07/23 08:00:26;;;;;;;2.40;2.20;;;;;;;44.81;21.13;99121.15;436234;1256;139410;-72
2023/07/23 08:10:33;;;;;;;4.50;2.40;;;;;;;43.53;19.96;99115.00;435998;1254;138361;-73
2023/07/23 08:20:40;;;;;;;3.70;3.00;;;;;;;40.19;20.84;99104.36;436037;1254;138871;-73
2023/07/23 08:30:47;;;;;;;3.40;2.50;;;;;;;38.22;21.90;99097.14;436553;1254;139958;-73
2023/07/23 08:41:00;;;;;;;5.20;2.50;;;;;;;37.17;22.55;99082.15;436247;1256;138559;-72
2023/07/23 08:51:07;;;;;;;3.40;2.20;;;;;;;35.66;23.11;99081.30;436108;1253;139772;-72
2023/07/23 09:01:14;;;;;;;5.10;2.30;;;;;;;34.66;24.05;99073.80;436357;1256;140243;-73
2023/07/23 09:11:20;;;;;;;3.30;2.60;;;;;;;33.49;24.95;99069.58;437116;1253;138521;-73
2023/07/23 09:21:27;;;;;;;2.70;2.40;;;;;;;32.69;25.73;99072.67;435969;1256;138923;-73
2023/07/23 09:31:35;;;;;;;3.00;2.60;;;;;;;32.05;26.44;99081.63;436154;1256;138869;-73
2023/07/23 09:41:41;;;;;;;2.20;2.00;;;;;;;32.05;27.06;99068.55;436145;1256;138540;-74
2023/07/23 09:51:52;;;;;;;;;;;;;;;32.09;27.49;99053.13;435655;1256;138888;-73
2023/07/23 10:01:58;;;;;;;4.00;1.90;;;;;;;32.23;27.24;99046.50;435704;1253;125292;-73
2023/07/23 10:12:05;;;;;;;2.90;2.00;;;;;;;31.14;27.31;99055.20;435651;1253;138831;-73
2023/07/23 10:22:11;;;;;;;3.40;2.20;;;;;;;30.61;28.13;99045.33;435807;1256;138778;-74
2023/07/23 10:32:27;;;;;;;2.10;1.90;;;;;;;30.55;28.27;99051.92;435824;1253;138552;-73
2023/07/23 10:42:41;;;;;;;2.20;1.70;;;;;;;30.21;27.77;99048.31;435770;1256;139110;-73
2023/07/23 10:52:53;;;;;;;2.50;2.30;;;;;;;30.11;27.55;99034.88;435759;1254;139451;-73
2023/07/23 11:02:59;;;;;;;4.20;2.30;;;;;;;30.00;27.28;99026.48;435717;1254;138392;-73
2023/07/23 11:13:09;;;;;;;2.40;2.00;;;;;;;29.78;27.25;99020.50;435595;1253;139457;-73
2023/07/23 11:23:16;;;;;;;3.90;1.90;;;;;;;29.73;27.35;99014.73;435902;1253;139084;-72
2023/07/23 11:33:22;;;;;;;2.30;1.90;;;;;;;29.88;27.39;99006.40;435917;1253;138651;-75
2023/07/23 11:43:35;;;;;;;2.40;1.40;;;;;;;29.80;27.87;99004.02;435700;1253;140073;-73
2023/07/23 11:53:41;;;;;;;4.90;2.30;;;;;;;30.29;27.80;98994.80;435960;1256;138472;-73
2023/07/23 12:03:47;;;;;;;3.40;2.20;;;;;;;30.38;27.94;98988.52;435392;1253;139249;-73
2023/07/23 12:13:55;;;;;;;2.70;2.50;;;;;;;30.39;27.90;98980.30;435516;1253;138854;-73
2023/07/23 12:24:13;;;;;;;2.80;2.60;;;;;;;29.89;28.29;98976.06;435788;1256;138257;-74
2023/07/23 12:34:19;;;;;;;4.00;2.20;;;;;;;30.08;28.66;98962.37;436577;1253;140277;-73
2023/07/23 12:44:29;;;;;;;1.80;1.50;;;;;;;30.11;28.45;98947.41;435783;1254;139349;-73
2023/07/23 12:54:35;;;;;;;2.00;1.80;;;;;;;29.23;28.80;98951.69;435649;1253;139074;-72
2023/07/23 13:04:44;;;;;;;2.50;2.30;;;;;;;28.61;29.58;98943.96;436069;1256;138542;-72
2023/07/23 13:14:50;;;;;;;5.70;2.50;;;;;;;28.74;29.78;98931.21;436030;1254;139054;-72
2023/07/23 13:24:55;;;;;;;2.00;1.80;;;;;;;28.70;29.93;98922.45;435865;1254;140079;-72
2023/07/23 13:35:01;;;;;;;3.20;2.50;;;;;;;28.70;30.02;98914.73;435823;1256;138572;-73
2023/07/23 13:45:09;;;;;;;4.80;2.30;;;;;;;28.95;29.85;98901.72;435741;1253;138734;-73
2023/07/23 13:55:15;;;;;;;2.20;1.80;;;;;;;28.98;29.54;98891.82;435553;1256;139975;-72
2023/07/23 14:05:25;;;;;;;3.70;2.20;;;;;;;28.81;29.59;98875.73;435617;1253;140485;-73
2023/07/23 14:15:31;;;;;;;2.50;2.30;;;;;;;28.90;29.81;98873.98;435690;1253;139254;-73
2023/07/23 14:25:37;;;;;;;5.70;3.10;;;;;;;29.23;29.58;98874.58;435402;1256;139026;-73
2023/07/23 14:35:43;;;;;;;5.20;2.70;;;;;;;29.07;29.39;98867.23;435677;1254;139665;-73
2023/07/23 14:45:49;;;;;;;3.80;2.40;;;;;;;28.71;29.58;98866.73;435673;1256;139975;-73
2023/07/23 14:55:54;;;;;;;9.20;3.60;;;;;;;28.47;30.13;98864.10;435749;1256;140132;-72
2023/07/23 15:06:00;;;;;;;3.50;3.20;;;;;;;28.21;30.02;98850.02;435800;1256;139624;-73
2023/07/23 15:16:08;;;;;;;5.20;3.00;;;;;;;28.05;30.15;98842.55;435726;1256;139753;-72
2023/07/23 15:26:16;;;;;;;2.80;2.60;;;;;;;27.86;30.47;98835.81;436440;1256;138814;-72
2023/07/23 15:36:22;;;;;;;4.30;2.20;;;;;;;27.95;30.74;98831.61;435639;1253;138500;-73
2023/07/23 15:46:30;;;;;;;4.60;2.00;;;;;;;28.04;30.54;98816.41;435535;1256;139194;-73
2023/07/23 15:56:36;;;;;;;2.40;2.10;;;;;;;27.80;30.60;98804.86;435659;1253;138890;-73
2023/07/23 16:06:42;;;;;;;3.80;2.10;;;;;;;27.65;30.85;98788.95;435612;1256;139850;-74
2023/07/23 16:16:47;;;;;;;4.80;2.10;;;;;;;27.41;30.97;98782.45;435793;1256;138462;-74
2023/07/23 16:26:54;;;;;;;3.80;1.80;;;;;;;27.18;31.53;98781.02;435665;1254;138794;-73
2023/07/23 16:37:02;;;;;;;3.40;2.10;;;;;;;27.19;31.90;98774.20;435609;1256;138540;-73
2023/07/23 16:47:08;;;;;;;6.00;2.20;;;;;;;27.28;31.99;98764.90;435704;1254;139131;-72
2023/07/23 16:57:13;;;;;;;2.90;2.20;;;;;;;27.49;31.63;98762.75;435787;1256;140507;-72
2023/07/23 17:07:19;;;;;;;2.90;2.00;;;;;;;27.60;30.78;98751.20;435863;1253;139242;-74
2023/07/23 17:17:25;;;;;;;3.10;1.70;;;;;;;27.69;29.93;98748.39;436503;1253;138322;-72
2023/07/23 17:27:31;;;;;;;5.70;1.90;;;;;;;27.92;29.40;98750.29;436542;1253;139024;-73
2023/07/23 17:37:39;;;;;;;2.60;2.30;;;;;;;27.27;29.94;98748.60;436197;1253;140121;-72
2023/07/23 17:47:45;;;;;;;2.50;1.80;;;;;;;26.66;30.74;98746.95;435895;1253;139908;-74
2023/07/23 17:57:52;;;;;;;3.50;2.60;;;;;;;26.05;31.98;98743.36;436394;1256;138477;-73
2023/07/23 18:07:58;;;;;;;2.60;2.00;;;;;;;25.54;33.22;98737.86;436365;1256;139549;-72
2023/07/23 18:18:03;;;;;;;6.30;4.00;;;;;;;25.10;34.78;98731.95;436210;1253;138327;-73
2023/07/23 18:28:11;;;;;;;5.50;2.70;;;;;;;24.64;36.24;98723.32;436583;1254;139234;-73
2023/07/23 18:38:17;;;;;;;4.40;3.60;;;;;;;24.21;37.92;98719.86;436018;1256;138896;-72
2023/07/23 18:48:23;;;;;;;6.60;3.50;;;;;;;23.84;39.48;98718.93;435811;1254;138873;-74
2023/07/23 18:58:31;;;;;;;7.60;3.70;;;;;;;23.45;40.66;98713.63;435742;1256;139561;-73
2023/07/23 19:08:37;;;;;;;4.30;3.20;;;;;;;23.14;40.73;98711.60;435617;1253;139339;-73
2023/07/23 19:18:43;;;;;;;5.20;4.20;;;;;;;22.93;41.06;98706.48;435616;1256;139445;-73
2023/07/23 19:28:48;;;;;;;5.60;3.60;;;;;;;22.75;42.68;98703.45;436066;1256;139522;-73
2023/07/23 19:38:54;;;;;;;6.60;4.00;;;;;;;22.61;43.77;98702.64;435757;1256;158198;-73
2023/07/23 19:49:00;;;;;;;3.00;2.70;;;;;;;22.47;44.04;98694.73;435534;1256;139665;-73
2023/07/23 19:59:05;;;;;;;4.50;3.70;;;;;;;22.45;43.12;98693.02;435509;1254;139030;-74
2023/07/23 20:09:11;;;;;;;4.30;3.10;;;;;;;22.46;43.14;98699.41;435192;1254;139489;-73
2023/07/23 20:19:17;;;;;;;4.80;4.40;;;;;;;22.45;44.02;98696.20;435626;1256;138705;-72
2023/07/23 20:29:24;;;;;;;6.40;3.90;;;;;;;22.35;45.18;98698.86;435703;1256;139669;-73
2023/07/23 20:39:31;;;;;;;6.20;4.40;;;;;;;22.24;46.06;98705.08;435684;1257;139199;-72
2023/07/23 20:49:37;;;;;;;5.50;3.40;;;;;;;22.14;46.49;98730.61;436001;1257;138584;-71
2023/07/23 20:59:43;;;;;;;3.10;2.70;;;;;;;22.05;46.23;98755.25;435630;1254;139266;-72
2023/07/23 21:09:49;;;;;;;5.60;3.60;;;;;;;22.08;45.45;98768.98;435586;1258;138736;-72
2023/07/23 21:19:56;;;;;;;3.10;2.70;;;;;;;22.10;44.94;98769.08;435397;1254;138943;-71
2023/07/23 21:30:03;;;;;;;6.20;5.00;;;;;;;22.05;44.99;98760.40;435500;1257;138272;-71
2023/07/23 21:40:11;;;;;;;5.20;2.80;;;;;;;21.96;45.87;98763.70;435125;1257;138664;-71
2023/07/23 21:50:16;;;;;;;;;;;;;;;21.84;45.87;98768.32;436339;1256;138793;-68
2023/07/23 22:00:25;;;;;;;4.10;2.60;;;;;;;21.70;46.11;98767.71;436038;1258;126135;-68
2023/07/23 22:10:30;;;;;;;3.20;2.90;;;;;;;21.60;46.45;98747.77;436558;1257;138425;-71
2023/07/23 22:20:36;;;;;;;3.40;2.20;;;;;;;21.49;47.38;98761.69;436061;1255;139703;-73
2023/07/23 22:30:42;;;;;;;4.70;2.50;;;;;;;21.35;47.83;98756.19;436320;1259;139942;-73
2023/07/23 22:40:48;;;;;;;5.90;2.90;;;;;;;21.24;48.50;98751.23;436374;1257;138429;-69
2023/07/23 22:50:54;;;;;;;5.20;4.70;;;;;;;21.25;48.56;98756.50;436087;1257;140237;-73
2023/07/23 23:01:05;;;;;;;3.90;2.70;;;;;;;21.17;48.70;98750.05;436034;1255;139366;-71
2023/07/23 23:11:10;;;;;;;3.60;2.70;;;;;;;20.98;49.59;98754.71;435898;1257;138928;-70
2023/07/23 23:21:16;;;;;;;3.30;3.00;;;;;;;20.76;50.36;98775.66;436154;1257;138545;-70
2023/07/23 23:31:22;;;;;;;4.90;3.40;;;;;;;20.49;50.62;98787.55;436071;1256;138537;-69
2023/07/23 23:41:28;;;;;;;4.40;3.40;;;;;;;20.36;51.12;98785.18;435900;1254;138294;-71
2023/07/23 23:51:34;;;;;;;3.40;2.80;;;;;;;20.23;51.65;98781.31;435743;1254;138472;-70
